Time;durP1;ratioP1;P1;durP2;ratioP2;P2;SDS_P1;SDS_P2;PMS_P1;PMS_P2;Temp;Humidity;BMP_temperature;BMP_pressure;BME280_temperature;BME280_humidity;BME280_pressure;Samples;Min_cycle;Max_cycle;Signal;HPM_P1;HPM_P2
2019/11/17 00:00:32;;;;;;;57.9;52;;;;;;;;;;;;;
2019/11/17 00:02:53;;;;;;;56;50.3;;;;;;;;;;;;;
2019/11/17 00:05:18;;;;;;;57.6;51.7;;;;;;;;;;;;;
2019/11/17 00:07:43;;;;;;;55.2;49.7;;;;;;;;;;;;;
2019/11/17 00:10:08;;;;;;;56.4;50.7;;;;;;;;;;;;;
2019/11/17 00:12:33;;;;;;;55.1;49.6;;;;;;;;;;;;;
2019/11/17 00:14:58;;;;;;;56.1;50.4;;;;;;;;;;;;;
2019/11/17 00:17:23;;;;;;;55.9;50.3;;;;;;;;;;;;;
2019/11/17 00:19:48;;;;;;;55.6;49.9;;;;;;;;;;;;;
2019/11/17 00:22:13;;;;;;;57.7;51.7;;;;;;;;;;;;;
2019/11/17 00:27:03;;;;;;;54.8;49.2;;;;;;;;;;;;;
2019/11/17 00:29:29;;;;;;;55;49.4;;;;;;;;;;;;;
2019/11/17 00:31:54;;;;;;;56.5;50.8;;;;;;;;;;;;;
2019/11/17 00:34:19;;;;;;;57.9;52;;;;;;;;;;;;;
2019/11/17 00:36:44;;;;;;;58.6;52.6;;;;;;;;;;;;;
2019/11/17 00:39:09;;;;;;;58.2;52.3;;;;;;;;;;;;;
2019/11/17 00:41:34;;;;;;;58.6;52.6;;;;;;;;;;;;;
2019/11/17 00:43:59;;;;;;;60.4;54.2;;;;;;;;;;;;;
2019/11/17 00:46:24;;;;;;;59;53;;;;;;;;;;;;;
2019/11/17 00:48:49;;;;;;;63.1;56.5;;;;;;;;;;;;;
2019/11/17 00:51:14;;;;;;;59.8;53.6;;;;;;;;;;;;;
2019/11/17 00:53:39;;;;;;;60.1;53.9;;;;;;;;;;;;;
2019/11/17 00:56:04;;;;;;;60.3;54;;;;;;;;;;;;;
2019/11/17 00:58:30;;;;;;;61.9;55.4;;;;;;;;;;;;;
2019/11/17 01:00:55;;;;;;;62.4;55.9;;;;;;;;;;;;;
2019/11/17 01:03:20;;;;;;;63;56.5;;;;;;;;;;;;;
2019/11/17 01:05:45;;;;;;;66;59.1;;;;;;;;;;;;;
2019/11/17 01:08:10;;;;;;;61.4;55;;;;;;;;;;;;;
2019/11/17 01:10:35;;;;;;;62.9;56.3;;;;;;;;;;;;;
2019/11/17 01:13:00;;;;;;;63.3;56.8;;;;;;;;;;;;;
2019/11/17 01:15:25;;;;;;;65.5;58.7;;;;;;;;;;;;;
2019/11/17 01:17:50;;;;;;;63.6;56.9;;;;;;;;;;;;;
2019/11/17 01:20:15;;;;;;;64.7;58;;;;;;;;;;;;;
2019/11/17 01:22:41;;;;;;;61.4;54.9;;;;;;;;;;;;;
2019/11/17 01:25:06;;;;;;;60.1;53.9;;;;;;;;;;;;;
2019/11/17 01:27:31;;;;;;;59;52.9;;;;;;;;;;;;;
2019/11/17 01:29:56;;;;;;;57.9;52;;;;;;;;;;;;;
2019/11/17 01:32:21;;;;;;;57.7;51.8;;;;;;;;;;;;;
2019/11/17 01:34:47;;;;;;;59.3;53;;;;;;;;;;;;;
2019/11/17 01:37:12;;;;;;;57.9;51.8;;;;;;;;;;;;;
2019/11/17 01:39:37;;;;;;;56.2;50.3;;;;;;;;;;;;;
2019/11/17 01:42:02;;;;;;;53.8;48.2;;;;;;;;;;;;;
2019/11/17 01:44:39;;;;;;;53.1;47.7;;;;;;;;;;;;;
2019/11/17 01:46:52;;;;;;;54.6;48.9;;;;;;;;;;;;;
2019/11/17 01:49:17;;;;;;;52.4;47;;;;;;;;;;;;;
2019/11/17 01:51:42;;;;;;;53.2;47.8;;;;;;;;;;;;;
2019/11/17 01:54:07;;;;;;;52;46.6;;;;;;;;;;;;;
2019/11/17 01:56:32;;;;;;;54.1;48.3;;;;;;;;;;;;;
2019/11/17 01:58:57;;;;;;;55;49.2;;;;;;;;;;;;;
2019/11/17 02:01:23;;;;;;;55.4;49.4;;;;;;;;;;;;;
2019/11/17 02:03:48;;;;;;;55.8;49.7;;;;;;;;;;;;;
2019/11/17 02:06:13;;;;;;;55.6;49.6;;;;;;;;;;;;;
2019/11/17 02:08:38;;;;;;;57.9;51.6;;;;;;;;;;;;;
2019/11/17 02:11:03;;;;;;;58.4;51.6;;;;;;;;;;;;;
2019/11/17 02:13:28;;;;;;;56.8;50.6;;;;;;;;;;;;;
2019/11/17 02:15:53;;;;;;;59;52.4;;;;;;;;;;;;;
2019/11/17 02:18:18;;;;;;;60.6;53.7;;;;;;;;;;;;;
2019/11/17 02:20:43;;;;;;;54.3;48.4;;;;;;;;;;;;;
2019/11/17 02:23:09;;;;;;;56.4;49.5;;;;;;;;;;;;;
2019/11/17 02:25:34;;;;;;;56.9;50.7;;;;;;;;;;;;;
2019/11/17 02:27:59;;;;;;;57.5;51.2;;;;;;;;;;;;;
2019/11/17 02:30:24;;;;;;;57.8;51.5;;;;;;;;;;;;;
2019/11/17 02:32:49;;;;;;;60.9;53.3;;;;;;;;;;;;;
2019/11/17 02:35:14;;;;;;;57.9;51;;;;;;;;;;;;;
2019/11/17 02:37:40;;;;;;;59.2;52.7;;;;;;;;;;;;;
2019/11/17 02:40:06;;;;;;;63.3;55.2;;;;;;;;;;;;;
2019/11/17 02:42:29;;;;;;;65.5;55.9;;;;;;;;;;;;;
2019/11/17 02:44:54;;;;;;;66.4;57;;;;;;;;;;;;;
2019/11/17 02:47:19;;;;;;;62.6;54.7;;;;;;;;;;;;;
2019/11/17 02:49:44;;;;;;;63.2;55.2;;;;;;;;;;;;;
2019/11/17 02:52:09;;;;;;;65.1;56.2;;;;;;;;;;;;;
2019/11/17 02:54:34;;;;;;;60.1;53;;;;;;;;;;;;;
2019/11/17 02:57:00;;;;;;;65.1;55.2;;;;;;;;;;;;;
2019/11/17 02:59:25;;;;;;;65.8;56.8;;;;;;;;;;;;;
2019/11/17 03:01:50;;;;;;;64.8;56.4;;;;;;;;;;;;;
2019/11/17 03:04:15;;;;;;;64.4;55.1;;;;;;;;;;;;;
2019/11/17 03:06:40;;;;;;;65.5;55.8;;;;;;;;;;;;;
2019/11/17 03:09:05;;;;;;;62.9;53.3;;;;;;;;;;;;;
2019/11/17 03:11:30;;;;;;;65.4;56.2;;;;;;;;;;;;;
2019/11/17 03:13:55;;;;;;;63.8;55.3;;;;;;;;;;;;;
2019/11/17 03:16:20;;;;;;;67.9;57.8;;;;;;;;;;;;;
2019/11/17 03:18:45;;;;;;;64.2;54.9;;;;;;;;;;;;;
2019/11/17 03:21:11;;;;;;;73.7;60.5;;;;;;;;;;;;;
2019/11/17 03:23:36;;;;;;;71.9;60.6;;;;;;;;;;;;;
2019/11/17 03:26:01;;;;;;;69.3;58.5;;;;;;;;;;;;;
2019/11/17 03:28:26;;;;;;;68.1;57;;;;;;;;;;;;;
2019/11/17 03:31:09;;;;;;;70.8;57.5;;;;;;;;;;;;;
2019/11/17 03:33:16;;;;;;;66.3;57.2;;;;;;;;;;;;;
2019/11/17 03:35:41;;;;;;;75;60.4;;;;;;;;;;;;;
2019/11/17 03:38:06;;;;;;;73.7;59;;;;;;;;;;;;;
2019/11/17 03:40:31;;;;;;;68.9;56.7;;;;;;;;;;;;;
2019/11/17 03:42:56;;;;;;;72.6;56.9;;;;;;;;;;;;;
2019/11/17 03:45:21;;;;;;;67.8;56.1;;;;;;;;;;;;;
2019/11/17 03:47:46;;;;;;;71;56.4;;;;;;;;;;;;;
2019/11/17 03:50:12;;;;;;;72.7;59.6;;;;;;;;;;;;;
2019/11/17 03:52:37;;;;;;;79.8;61.9;;;;;;;;;;;;;
2019/11/17 03:55:02;;;;;;;80.3;63.1;;;;;;;;;;;;;
2019/11/17 03:57:27;;;;;;;77.6;61.7;;;;;;;;;;;;;
2019/11/17 04:02:34;;;;;;;76.2;62.5;;;;;;;4.8;100;951.7169;;;;
2019/11/17 04:05:17;;;;;;;73;60.5;;;;;;;4.75;100;951.7017;;;;
2019/11/17 04:08:06;;;;;;;80.2;64.4;;;;;;;4.81;100;951.5726;;;;
2019/11/17 04:10:44;;;;;;;75.9;62.8;;;;;;;4.69;100;951.4926;;;;
2019/11/17 04:13:09;;;;;;;79.4;64.1;;;;;;;4.74;100;951.3279;;;;
2019/11/17 04:15:34;;;;;;;79.3;62.5;;;;;;;4.67;100;951.255;;;;
2019/11/17 04:18:38;;;;;;;81.8;64.8;;;;;;;4.71;100;951.2947;;;;
2019/11/17 04:20:27;;;;;;;77.8;62.5;;;;;;;4.72;100;951.2772;;;;
2019/11/17 04:22:52;;;;;;;77.3;61.7;;;;;;;4.72;100;951.1989;;;;
2019/11/17 04:25:15;;;;;;;75.9;60.7;;;;;;;4.68;100;951.2003;;;;
2019/11/17 04:27:41;;;;;;;72.7;59.8;;;;;;;4.68;100;951.1915;;;;
2019/11/17 04:30:06;;;;;;;73.9;58.5;;;;;;;4.72;100;951.2498;;;;
2019/11/17 04:32:32;;;;;;;78.1;61.9;;;;;;;4.58;100;951.2767;;;;
2019/11/17 04:34:57;;;;;;;79.8;61.4;;;;;;;4.59;100;951.1519;;;;
2019/11/17 04:37:22;;;;;;;78.8;60.5;;;;;;;4.55;100;951.0589;;;;
2019/11/17 04:39:47;;;;;;;71;56.4;;;;;;;4.65;100;950.9565;;;;
2019/11/17 04:42:12;;;;;;;68.9;55.6;;;;;;;4.71;100;950.8663;;;;
2019/11/17 04:44:37;;;;;;;63.5;51.8;;;;;;;4.71;100;950.8606;;;;
2019/11/17 04:47:02;;;;;;;63.9;51.8;;;;;;;4.65;100;950.7687;;;;
2019/11/17 04:49:27;;;;;;;65.5;51.3;;;;;;;4.49;100;950.7733;;;;
2019/11/17 04:51:52;;;;;;;59.1;48.7;;;;;;;4.51;100;950.7592;;;;
2019/11/17 04:54:17;;;;;;;56;46.4;;;;;;;4.53;100;950.705;;;;
2019/11/17 04:56:43;;;;;;;53.7;45.4;;;;;;;4.59;100;950.6895;;;;
2019/11/17 04:59:08;;;;;;;48.9;43;;;;;;;4.6;100;950.7801;;;;
2019/11/17 05:01:33;;;;;;;57.6;46.7;;;;;;;4.37;100;951.118;;;;
2019/11/17 05:03:58;;;;;;;56.7;47.1;;;;;;;4.41;100;951.1533;;;;
2019/11/17 05:06:23;;;;;;;58.4;47.8;;;;;;;4.28;100;951.1613;;;;
2019/11/17 05:08:49;;;;;;;57;47.2;;;;;;;4.28;100;951.0826;;;;
2019/11/17 05:11:14;;;;;;;57.3;47;;;;;;;4.2;100;951.0497;;;;
2019/11/17 05:13:39;;;;;;;56.9;46.3;;;;;;;4.34;100;950.99;;;;
2019/11/17 05:16:04;;;;;;;51.1;43.2;;;;;;;4.41;100;950.7944;;;;
2019/11/17 05:18:29;;;;;;;55.4;45.2;;;;;;;4.31;100;950.6691;;;;
2019/11/17 05:20:54;;;;;;;53.9;45.2;;;;;;;4.28;100;950.6287;;;;
2019/11/17 05:23:20;;;;;;;57.1;45.5;;;;;;;4.19;100;950.5253;;;;
2019/11/17 05:25:45;;;;;;;57;45.7;;;;;;;4.3;100;950.4959;;;;
2019/11/17 05:28:10;;;;;;;54.9;44.7;;;;;;;4.29;100;950.5876;;;;
2019/11/17 05:30:36;;;;;;;57.1;45.6;;;;;;;4.18;100;950.3628;;;;
2019/11/17 05:33:01;;;;;;;51.7;44;;;;;;;4.42;100;950.4139;;;;
2019/11/17 05:35:26;;;;;;;55.5;44.9;;;;;;;4.35;100;950.4088;;;;
2019/11/17 05:37:51;;;;;;;54.2;45.2;;;;;;;4.34;100;950.5045;;;;
2019/11/17 05:40:16;;;;;;;52.1;43.6;;;;;;;4.57;100;950.6108;;;;
2019/11/17 05:42:41;;;;;;;52;43.6;;;;;;;4.49;100;950.6378;;;;
2019/11/17 05:45:07;;;;;;;47.8;41.8;;;;;;;4.58;100;950.7079;;;;
2019/11/17 05:47:32;;;;;;;52.7;43.6;;;;;;;4.44;100;950.6435;;;;
2019/11/17 05:49:57;;;;;;;50.9;43.5;;;;;;;4.53;100;950.6783;;;;
2019/11/17 05:52:23;;;;;;;53.4;45.1;;;;;;;4.44;100;950.6161;;;;
2019/11/17 05:54:48;;;;;;;51.8;44.1;;;;;;;4.48;100;950.4428;;;;
2019/11/17 05:57:13;;;;;;;58.4;46.4;;;;;;;4.47;100;950.3871;;;;
2019/11/17 05:59:38;;;;;;;50;43.2;;;;;;;4.46;100;950.2935;;;;
2019/11/17 06:02:03;;;;;;;53.5;44.1;;;;;;;4.43;100;950.1761;;;;
2019/11/17 06:04:28;;;;;;;53.3;44.7;;;;;;;4.57;100;949.975;;;;
2019/11/17 06:06:54;;;;;;;55.1;45.2;;;;;;;4.61;100;950.0714;;;;
2019/11/17 06:09:19;;;;;;;51.8;43.8;;;;;;;4.66;100;950.2606;;;;
2019/11/17 06:12:05;;;;;;;51.6;44.4;;;;;;;4.57;100;950.2307;;;;
2019/11/17 06:14:09;;;;;;;56.8;45.1;;;;;;;4.62;100;950.2838;;;;
2019/11/17 06:16:34;;;;;;;58;46.4;;;;;;;4.64;100;950.4426;;;;
2019/11/17 06:18:59;;;;;;;63;48.6;;;;;;;4.41;100;950.5031;;;;
2019/11/17 06:21:25;;;;;;;64.1;49.2;;;;;;;4.43;100;950.3728;;;;
2019/11/17 06:23:50;;;;;;;74.8;53.9;;;;;;;4.16;100;950.2762;;;;
2019/11/17 06:26:15;;;;;;;77.5;54.1;;;;;;;4.17;100;950.2506;;;;
2019/11/17 06:28:40;;;;;;;80;56.3;;;;;;;4.08;100;950.2175;;;;
2019/11/17 06:31:06;;;;;;;79.4;54.8;;;;;;;4.11;100;950.1594;;;;
2019/11/17 06:33:31;;;;;;;78.3;55.5;;;;;;;4.14;100;950.2578;;;;
2019/11/17 06:35:56;;;;;;;80.6;56.1;;;;;;;4.09;100;950.3272;;;;
2019/11/17 06:38:22;;;;;;;80.9;55.4;;;;;;;4.14;100;950.2555;;;;
2019/11/17 06:40:47;;;;;;;80.2;55.5;;;;;;;4.22;100;950.2538;;;;
2019/11/17 06:43:12;;;;;;;77;54.4;;;;;;;4.25;100;950.3409;;;;
2019/11/17 06:45:37;;;;;;;78.9;56.7;;;;;;;4.34;100;950.3797;;;;
2019/11/17 06:48:13;;;;;;;76.1;54.2;;;;;;;4.41;100;950.3186;;;;
2019/11/17 06:50:27;;;;;;;81.5;57.1;;;;;;;4.43;100;950.3159;;;;
2019/11/17 06:52:53;;;;;;;79.9;54.8;;;;;;;4.42;100;950.3831;;;;
2019/11/17 06:55:19;;;;;;;70.5;50.6;;;;;;;4.43;100;950.3547;;;;
2019/11/17 06:57:44;;;;;;;68.8;48.4;;;;;;;4.42;100;950.2864;;;;
2019/11/17 07:00:13;;;;;;;71.2;49.8;;;;;;;4.37;100;950.3055;;;;
2019/11/17 07:02:39;;;;;;;76.5;51.5;;;;;;;4.36;100;950.3542;;;;
2019/11/17 07:05:04;;;;;;;80.9;54.6;;;;;;;4.29;100;950.3119;;;;
2019/11/17 07:07:29;;;;;;;82.2;55.8;;;;;;;4.22;100;950.1828;;;;
2019/11/17 07:09:54;;;;;;;76.2;53.1;;;;;;;4.31;100;950.1107;;;;
2019/11/17 07:12:19;;;;;;;73.1;53;;;;;;;4.43;100;949.7829;;;;
2019/11/17 07:14:44;;;;;;;70.7;51.3;;;;;;;4.67;100;949.8067;;;;
2019/11/17 07:17:09;;;;;;;64.6;49;;;;;;;4.64;100;949.7455;;;;
2019/11/17 07:19:34;;;;;;;65.8;48.5;;;;;;;4.58;100;949.5811;;;;
2019/11/17 07:21:59;;;;;;;61.7;46.9;;;;;;;4.57;100;949.6814;;;;
2019/11/17 07:24:24;;;;;;;65.4;48;;;;;;;4.74;100;949.6607;;;;
2019/11/17 07:26:49;;;;;;;63.8;47.3;;;;;;;4.52;100;949.5867;;;;
2019/11/17 07:29:15;;;;;;;73.2;51.5;;;;;;;4.63;100;949.5425;;;;
2019/11/17 07:31:40;;;;;;;64.6;47.3;;;;;;;4.65;100;949.6722;;;;
2019/11/17 07:34:05;;;;;;;70.8;51;;;;;;;4.51;100;949.6443;;;;
2019/11/17 07:36:30;;;;;;;73.3;50.7;;;;;;;4.53;100;949.5806;;;;
2019/11/17 07:38:55;;;;;;;68.4;51.3;;;;;;;4.82;100;949.5547;;;;
2019/11/17 07:41:20;;;;;;;67.8;51;;;;;;;4.77;100;949.5542;;;;
2019/11/17 07:43:46;;;;;;;72.3;54;;;;;;;4.69;100;949.653;;;;
2019/11/17 07:46:11;;;;;;;71.6;53.5;;;;;;;4.79;100;949.8155;;;;
2019/11/17 07:48:36;;;;;;;79.9;56.5;;;;;;;4.72;100;949.9353;;;;
2019/11/17 07:51:01;;;;;;;76.1;54.8;;;;;;;4.75;100;949.9037;;;;
2019/11/17 07:53:26;;;;;;;71.5;53.1;;;;;;;4.89;100;949.7686;;;;
2019/11/17 07:55:51;;;;;;;72.5;53.6;;;;;;;4.92;100;949.6838;;;;
2019/11/17 07:58:16;;;;;;;71.2;53;;;;;;;4.98;100;949.6158;;;;
2019/11/17 08:00:42;;;;;;;72.5;56.3;;;;;;;4.85;100;949.5239;;;;
2019/11/17 08:03:07;;;;;;;74.9;57.3;;;;;;;4.85;100;949.5562;;;;
2019/11/17 08:05:32;;;;;;;71.7;54.7;;;;;;;4.97;100;949.5083;;;;
2019/11/17 08:07:57;;;;;;;73.7;54.7;;;;;;;5.02;100;949.4391;;;;
2019/11/17 08:10:22;;;;;;;63.3;51;;;;;;;5.07;100;949.5347;;;;
2019/11/17 08:12:47;;;;;;;67.2;52.6;;;;;;;4.99;100;949.4706;;;;
2019/11/17 08:15:12;;;;;;;62.9;50.2;;;;;;;4.98;100;949.4713;;;;
2019/11/17 08:17:37;;;;;;;57.3;47.6;;;;;;;5.17;100;949.5789;;;;
2019/11/17 08:20:03;;;;;;;58.2;47.1;;;;;;;5.03;100;949.584;;;;
2019/11/17 08:22:28;;;;;;;55.9;46.4;;;;;;;5.16;100;949.5449;;;;
2019/11/17 08:24:53;;;;;;;57.9;47.9;;;;;;;5.04;100;949.5478;;;;
2019/11/17 08:27:18;;;;;;;56.4;47.1;;;;;;;4.94;100;949.2509;;;;
2019/11/17 08:29:44;;;;;;;62.5;50.8;;;;;;;4.98;100;949.0483;;;;
2019/11/17 08:32:09;;;;;;;58.5;49.4;;;;;;;5.1;100;949.0842;;;;
2019/11/17 08:34:34;;;;;;;59;48;;;;;;;4.99;100;949.2236;;;;
2019/11/17 08:36:59;;;;;;;62.3;49.9;;;;;;;4.98;100;949.2388;;;;
2019/11/17 08:39:24;;;;;;;57.9;47.3;;;;;;;5.1;100;948.8831;;;;
2019/11/17 08:41:50;;;;;;;64.7;50.4;;;;;;;5;100;948.6961;;;;
2019/11/17 08:44:15;;;;;;;63.1;50.1;;;;;;;4.97;100;948.861;;;;
2019/11/17 08:46:41;;;;;;;73.1;53.8;;;;;;;5.03;100;948.8244;;;;
2019/11/17 08:49:06;;;;;;;73.3;53.9;;;;;;;4.88;100;948.846;;;;
2019/11/17 08:51:31;;;;;;;78.7;56.1;;;;;;;4.94;100;949.0136;;;;
2019/11/17 08:53:56;;;;;;;73.9;55.3;;;;;;;5.04;100;949.0779;;;;
2019/11/17 08:56:21;;;;;;;70.1;52.3;;;;;;;4.99;100;949.1671;;;;
2019/11/17 08:58:47;;;;;;;68.8;52.1;;;;;;;5.03;100;948.7;;;;
2019/11/17 09:01:12;;;;;;;66.7;51.2;;;;;;;4.85;100;948.9267;;;;
2019/11/17 09:03:37;;;;;;;66.6;50.7;;;;;;;4.89;100;948.4183;;;;
2019/11/17 09:06:02;;;;;;;70.3;52.1;;;;;;;4.77;100;948.9918;;;;
2019/11/17 09:08:27;;;;;;;65.3;49.9;;;;;;;4.9;100;948.6678;;;;
2019/11/17 09:10:53;;;;;;;67.5;52;;;;;;;4.73;100;948.9938;;;;
2019/11/17 09:13:17;;;;;;;68.5;51.9;;;;;;;4.65;100;948.8444;;;;
2019/11/17 09:15:43;;;;;;;65.3;50.9;;;;;;;4.66;100;949.089;;;;
2019/11/17 09:18:09;;;;;;;66.7;50.5;;;;;;;4.56;100;948.8059;;;;
2019/11/17 09:20:33;;;;;;;71.2;53.2;;;;;;;4.65;100;948.8033;;;;
2019/11/17 09:23:03;;;;;;;70.5;52.1;;;;;;;4.74;100;948.8401;;;;
2019/11/17 09:25:23;;;;;;;65.8;50.2;;;;;;;4.89;100;948.9849;;;;
2019/11/17 09:27:49;;;;;;;66;51.3;;;;;;;4.75;100;949.1195;;;;
2019/11/17 09:30:14;;;;;;;65.6;50.3;;;;;;;4.81;100;949.1129;;;;
2019/11/17 09:32:39;;;;;;;63;49.6;;;;;;;4.87;100;949.0538;;;;
2019/11/17 09:35:04;;;;;;;67;50.8;;;;;;;4.92;100;949.055;;;;
2019/11/17 09:37:30;;;;;;;62.8;48.9;;;;;;;4.95;100;949.192;;;;
2019/11/17 09:39:55;;;;;;;58.7;47.3;;;;;;;5.02;100;949.2146;;;;
2019/11/17 09:42:20;;;;;;;58.8;46.9;;;;;;;5.03;100;949.1295;;;;
2019/11/17 09:44:45;;;;;;;60.1;47.6;;;;;;;5.11;100;949.0157;;;;
2019/11/17 09:47:10;;;;;;;55.5;44.2;;;;;;;5.41;100;949.0424;;;;
2019/11/17 09:49:35;;;;;;;59.3;47;;;;;;;5.15;100;948.9093;;;;
2019/11/17 09:52:00;;;;;;;60.7;46.5;;;;;;;5.21;100;948.8114;;;;
2019/11/17 09:54:25;;;;;;;60.2;46.1;;;;;;;5.25;100;948.6005;;;;
2019/11/17 09:56:50;;;;;;;62.4;47.6;;;;;;;5.26;100;948.3434;;;;
2019/11/17 09:59:16;;;;;;;64.3;48.6;;;;;;;5.31;100;948.1674;;;;
2019/11/17 10:01:41;;;;;;;58.8;45.8;;;;;;;5.41;100;948.0884;;;;
2019/11/17 10:04:06;;;;;;;62.8;47.5;;;;;;;5.33;100;948.1008;;;;
2019/11/17 10:06:37;;;;;;;66.3;47.6;;;;;;;5.32;100;948.0051;;;;
2019/11/17 10:09:00;;;;;;;63.3;46.7;;;;;;;5.3;100;947.9564;;;;
2019/11/17 10:11:25;;;;;;;63.7;46.6;;;;;;;5.39;100;948.0066;;;;
2019/11/17 10:13:50;;;;;;;69;49;;;;;;;5.32;100;947.8677;;;;
2019/11/17 10:16:15;;;;;;;64.3;47.3;;;;;;;5.44;100;948.0559;;;;
2019/11/17 10:18:40;;;;;;;63.3;44.9;;;;;;;5.39;100;948.131;;;;
2019/11/17 10:21:05;;;;;;;61.6;44;;;;;;;5.4;100;948.0948;;;;
2019/11/17 10:25:46;;;;;;;63.8;45.4;;;;;;;5.38;100;948.0111;;;;
2019/11/17 10:28:11;;;;;;;64.6;45.2;;;;;;;5.41;100;947.9906;;;;
2019/11/17 10:30:36;;;;;;;60.4;42.9;;;;;;;5.55;100;947.9523;;;;
2019/11/17 10:33:01;;;;;;;58;42.1;;;;;;;5.43;100;947.778;;;;
2019/11/17 10:35:26;;;;;;;60.6;43.3;;;;;;;5.5;100;947.6649;;;;
2019/11/17 10:37:51;;;;;;;59.7;41.9;;;;;;;5.54;100;947.7018;;;;
2019/11/17 10:40:16;;;;;;;57.7;41.6;;;;;;;5.47;100;947.5916;;;;
2019/11/17 10:42:41;;;;;;;59.5;43.2;;;;;;;5.47;100;947.6033;;;;
2019/11/17 10:45:07;;;;;;;61.3;43.5;;;;;;;5.35;100;947.4799;;;;
2019/11/17 10:47:32;;;;;;;56.7;39.9;;;;;;;5.42;100;947.3708;;;;
2019/11/17 10:49:57;;;;;;;55.2;40.1;;;;;;;5.58;100;947.3299;;;;
2019/11/17 10:52:22;;;;;;;56.3;41.2;;;;;;;5.43;100;947.1987;;;;
2019/11/17 10:54:47;;;;;;;58.6;41.8;;;;;;;5.38;100;947.4081;;;;
2019/11/17 10:57:12;;;;;;;58.2;42;;;;;;;5.44;100;947.4459;;;;
2019/11/17 10:59:37;;;;;;;61.5;43.1;;;;;;;5.37;100;947.0959;;;;
2019/11/17 11:02:02;;;;;;;64;44;;;;;;;5.35;100;946.791;;;;
2019/11/17 11:04:27;;;;;;;61.8;43.4;;;;;;;5.33;100;946.6599;;;;
2019/11/17 11:06:52;;;;;;;65.7;44.7;;;;;;;5.41;100;946.7039;;;;
2019/11/17 11:09:18;;;;;;;69.6;45.9;;;;;;;5.34;100;946.6584;;;;
2019/11/17 11:11:43;;;;;;;67.2;46.6;;;;;;;5.3;100;946.5044;;;;
2019/11/17 11:14:08;;;;;;;69;46.7;;;;;;;5.37;100;946.5128;;;;
2019/11/17 11:16:33;;;;;;;63.9;44.5;;;;;;;5.47;100;946.3819;;;;
2019/11/17 11:18:58;;;;;;;64.9;45.6;;;;;;;5.43;100;946.1964;;;;
2019/11/17 11:21:23;;;;;;;65;45.5;;;;;;;5.4;100;946.3178;;;;
2019/11/17 11:23:49;;;;;;;67.1;46.8;;;;;;;5.44;100;946.4073;;;;
2019/11/17 11:26:14;;;;;;;68.7;46.8;;;;;;;5.44;100;946.4622;;;;
2019/11/17 11:28:39;;;;;;;65.3;45.5;;;;;;;5.66;100;946.6414;;;;
2019/11/17 11:31:04;;;;;;;64.9;44.2;;;;;;;5.62;100;946.71;;;;
2019/11/17 11:33:30;;;;;;;70.8;47.9;;;;;;;5.51;100;946.3214;;;;
2019/11/17 11:35:55;;;;;;;67.1;46.9;;;;;;;5.44;100;946.2501;;;;
2019/11/17 11:38:20;;;;;;;66.5;47.5;;;;;;;5.42;100;945.9832;;;;
2019/11/17 11:40:46;;;;;;;66.2;47.1;;;;;;;5.49;100;945.8943;;;;
2019/11/17 11:43:11;;;;;;;63.6;45.3;;;;;;;5.66;100;946.0039;;;;
2019/11/17 11:45:36;;;;;;;59.8;43.4;;;;;;;5.75;100;946.0706;;;;
2019/11/17 11:48:01;;;;;;;63.9;45.1;;;;;;;5.61;100;945.9916;;;;
2019/11/17 11:50:26;;;;;;;60.2;44;;;;;;;5.69;100;945.9429;;;;
2019/11/17 11:52:51;;;;;;;57.7;42.4;;;;;;;5.68;100;945.6605;;;;
2019/11/17 11:55:17;;;;;;;61.5;43.6;;;;;;;5.68;100;945.6851;;;;
2019/11/17 11:57:42;;;;;;;58.4;42.9;;;;;;;5.75;100;945.6948;;;;
2019/11/17 12:00:07;;;;;;;60.8;43.4;;;;;;;5.76;100;945.5712;;;;
2019/11/17 12:02:33;;;;;;;60.4;43.4;;;;;;;5.68;100;945.4311;;;;
2019/11/17 12:04:58;;;;;;;60.1;43;;;;;;;5.69;100;945.475;;;;
2019/11/17 12:07:23;;;;;;;58.4;42.7;;;;;;;5.93;100;945.6873;;;;
2019/11/17 12:09:49;;;;;;;56.6;42.2;;;;;;;5.92;99.69043;945.6713;;;;
2019/11/17 12:12:14;;;;;;;54.8;40;;;;;;;5.96;100;945.4911;;;;
2019/11/17 12:14:39;;;;;;;53.6;41;;;;;;;5.94;99.43457;945.5078;;;;
2019/11/17 12:17:05;;;;;;;53;39.2;;;;;;;5.95;98.92285;945.5854;;;;
2019/11/17 12:19:30;;;;;;;50.7;38.3;;;;;;;5.94;99.12695;945.5119;;;;
2019/11/17 12:21:55;;;;;;;51.9;38.9;;;;;;;6.01;99.10742;945.5733;;;;
2019/11/17 12:24:21;;;;;;;51.5;39.2;;;;;;;6;99.25391;945.3162;;;;
2019/11/17 12:26:46;;;;;;;53;38.8;;;;;;;5.94;98.70605;945.4108;;;;
2019/11/17 12:29:11;;;;;;;50.6;37.9;;;;;;;6.09;99.30859;945.5381;;;;
2019/11/17 12:31:36;;;;;;;46.7;36;;;;;;;6.28;97.81641;945.6499;;;;
2019/11/17 12:34:01;;;;;;;49.9;36.5;;;;;;;6.21;97.2168;945.4386;;;;
2019/11/17 12:36:26;;;;;;;49.6;36.8;;;;;;;6.14;99;945.4321;;;;
2019/11/17 12:38:52;;;;;;;47.8;36.1;;;;;;;6.24;97.46191;945.4308;;;;
2019/11/17 12:41:17;;;;;;;44.9;35.1;;;;;;;6.26;97.63867;945.4878;;;;
2019/11/17 12:43:42;;;;;;;45.5;35.5;;;;;;;6.31;97.69727;945.5731;;;;
2019/11/17 12:46:07;;;;;;;50.1;36.4;;;;;;;6.17;98.41602;945.4972;;;;
2019/11/17 12:48:33;;;;;;;42;32.7;;;;;;;6.39;96.02832;945.5524;;;;
2019/11/17 12:50:58;;;;;;;41;30.9;;;;;;;6.35;95.76953;945.3416;;;;
2019/11/17 12:53:23;;;;;;;39.3;30.3;;;;;;;6.49;95.14746;945.4158;;;;
2019/11/17 12:55:49;;;;;;;44.4;32.8;;;;;;;6.31;95.34961;945.4963;;;;
2019/11/17 12:58:14;;;;;;;46.3;35;;;;;;;6.34;95.9707;945.4028;;;;
2019/11/17 13:00:39;;;;;;;45;34.2;;;;;;;6.31;95.75781;945.5359;;;;
2019/11/17 13:03:04;;;;;;;64.6;47.8;;;;;;;6.33;96.09375;945.5775;;;;
2019/11/17 13:05:29;;;;;;;52.8;39;;;;;;;6.51;95.15332;945.6153;;;;
2019/11/17 13:07:54;;;;;;;44.6;33.3;;;;;;;6.5;94.98047;945.6209;;;;
2019/11/17 13:10:19;;;;;;;46.6;36;;;;;;;6.44;97.23535;945.5385;;;;
2019/11/17 13:12:44;;;;;;;44.3;34.4;;;;;;;6.49;96.98535;945.5538;;;;
2019/11/17 13:15:09;;;;;;;46.7;35.1;;;;;;;6.6;97.79688;945.4747;;;;
2019/11/17 13:17:34;;;;;;;43.5;33.2;;;;;;;6.64;95.82031;945.3682;;;;
2019/11/17 13:19:59;;;;;;;43;32.6;;;;;;;6.55;95.9375;945.3028;;;;
2019/11/17 13:22:24;;;;;;;42.8;32.5;;;;;;;6.65;94.52441;945.1613;;;;
2019/11/17 13:24:49;;;;;;;38.6;30;;;;;;;6.6;95.83496;945.1517;;;;
2019/11/17 13:27:15;;;;;;;42.4;31.8;;;;;;;6.54;96.41602;945.3777;;;;
2019/11/17 13:29:40;;;;;;;45.2;33.6;;;;;;;6.43;96.90039;945.4039;;;;
2019/11/17 13:32:05;;;;;;;43.1;32.4;;;;;;;6.48;97.0293;945.5016;;;;
2019/11/17 13:34:30;;;;;;;43.8;34;;;;;;;6.64;96.43652;945.5478;;;;
2019/11/17 13:36:55;;;;;;;45.2;33.4;;;;;;;6.56;95.3252;945.4598;;;;
2019/11/17 13:39:20;;;;;;;44.1;33.6;;;;;;;6.49;95.7998;945.3337;;;;
2019/11/17 13:41:45;;;;;;;45.4;34.4;;;;;;;6.47;95.88672;945.3131;;;;
2019/11/17 13:44:10;;;;;;;41.8;33;;;;;;;6.45;96.61035;945.35;;;;
2019/11/17 13:46:35;;;;;;;44.8;33.5;;;;;;;6.42;97.55078;945.4678;;;;
2019/11/17 13:49:00;;;;;;;41.9;33.1;;;;;;;6.51;98.09766;945.4526;;;;
2019/11/17 13:51:26;;;;;;;45.3;33.8;;;;;;;6.56;96.94238;945.4865;;;;
2019/11/17 13:53:51;;;;;;;44.9;33.5;;;;;;;6.61;97.61816;945.6376;;;;
2019/11/17 13:56:16;;;;;;;40.3;31.7;;;;;;;6.68;96.30957;945.5978;;;;
2019/11/17 13:58:41;;;;;;;41.2;32;;;;;;;6.66;96.44043;945.6792;;;;
2019/11/17 14:01:06;;;;;;;42.8;33;;;;;;;6.68;96.74316;945.6545;;;;
2019/11/17 14:03:31;;;;;;;41.3;32.3;;;;;;;6.66;96.54492;945.7092;;;;
2019/11/17 14:05:56;;;;;;;43.2;33.6;;;;;;;6.61;97.38965;945.7104;;;;
2019/11/17 14:08:21;;;;;;;42;33.2;;;;;;;6.61;96.85156;945.6697;;;;
2019/11/17 14:10:46;;;;;;;43.4;33.7;;;;;;;6.65;96.59961;945.5886;;;;
2019/11/17 14:13:11;;;;;;;44.7;34.7;;;;;;;6.37;96.31836;945.5969;;;;
2019/11/17 14:15:36;;;;;;;43.6;33.9;;;;;;;6.5;96.17773;945.4988;;;;
2019/11/17 14:18:02;;;;;;;45.4;33.5;;;;;;;6.52;96.52344;945.3984;;;;
2019/11/17 14:20:27;;;;;;;41.9;33;;;;;;;6.53;96.82227;945.2563;;;;
2019/11/17 14:22:52;;;;;;;41.1;33;;;;;;;6.49;96.60742;945.2006;;;;
2019/11/17 14:25:17;;;;;;;41;32.3;;;;;;;6.56;96.09863;945.4161;;;;
2019/11/17 14:27:42;;;;;;;44;32.7;;;;;;;6.61;95.92871;945.3908;;;;
2019/11/17 14:30:07;;;;;;;40.4;32.1;;;;;;;6.61;95.97168;945.4067;;;;
2019/11/17 14:32:32;;;;;;;44.8;33.8;;;;;;;6.67;95.94043;945.3644;;;;
2019/11/17 14:34:58;;;;;;;41;32;;;;;;;6.55;95.87988;945.327;;;;
2019/11/17 14:37:23;;;;;;;40.4;33;;;;;;;6.49;96.83496;945.4127;;;;
2019/11/17 14:39:48;;;;;;;45.6;34.1;;;;;;;6.54;96.39063;945.419;;;;
2019/11/17 14:42:13;;;;;;;42;32.9;;;;;;;6.66;96.29395;945.3361;;;;
2019/11/17 14:44:38;;;;;;;41.1;32;;;;;;;6.61;95.89648;945.2201;;;;
2019/11/17 14:47:04;;;;;;;44.2;34.1;;;;;;;6.48;97.4502;945.1805;;;;
2019/11/17 14:49:29;;;;;;;43.3;33.4;;;;;;;6.48;97.67871;945.1303;;;;
2019/11/17 14:51:54;;;;;;;42.5;32.4;;;;;;;6.56;96.33789;945.073;;;;
2019/11/17 14:54:19;;;;;;;39.6;31.9;;;;;;;6.63;96.63965;945.1141;;;;
2019/11/17 14:56:44;;;;;;;39.2;31.5;;;;;;;6.6;96.38281;945.2659;;;;
2019/11/17 14:59:10;;;;;;;43.6;33.3;;;;;;;6.62;96.64844;945.4604;;;;
2019/11/17 15:01:35;;;;;;;44.3;34.3;;;;;;;6.74;96.7666;945.3978;;;;
2019/11/17 15:04:00;;;;;;;43.7;33.7;;;;;;;6.66;96.16797;945.3215;;;;
2019/11/17 15:06:25;;;;;;;41.1;32.7;;;;;;;6.65;95.66504;945.3426;;;;
2019/11/17 15:08:51;;;;;;;44.7;33.8;;;;;;;6.63;96.55957;945.1278;;;;
2019/11/17 15:11:16;;;;;;;46.2;34.8;;;;;;;6.37;96.41016;945.0044;;;;
2019/11/17 15:13:41;;;;;;;41.2;32.7;;;;;;;6.33;96.43555;945.0776;;;;
2019/11/17 15:16:06;;;;;;;45.1;33.6;;;;;;;6.29;96.43945;945.0263;;;;
2019/11/17 15:18:32;;;;;;;44.1;32.5;;;;;;;6.36;97.19629;945.2656;;;;
2019/11/17 15:20:57;;;;;;;41.3;32.4;;;;;;;6.45;97.13477;945.2141;;;;
2019/11/17 15:23:22;;;;;;;39.1;31;;;;;;;6.48;96.4248;945.2743;;;;
2019/11/17 15:25:47;;;;;;;43.1;33.5;;;;;;;6.4;96.8623;945.2056;;;;
2019/11/17 15:28:12;;;;;;;39.4;31.8;;;;;;;6.5;97.30469;945.2277;;;;
2019/11/17 15:30:38;;;;;;;43.4;33.1;;;;;;;6.5;96.10938;945.2447;;;;
2019/11/17 15:33:03;;;;;;;43.8;33.9;;;;;;;6.58;96.05957;945.2553;;;;
2019/11/17 15:35:28;;;;;;;45.5;34.9;;;;;;;6.53;96.75391;945.3033;;;;
2019/11/17 15:37:53;;;;;;;44.3;33;;;;;;;6.5;96.30078;945.2139;;;;
2019/11/17 15:40:19;;;;;;;42.3;32.2;;;;;;;6.68;96.00098;945.1851;;;;
2019/11/17 15:42:44;;;;;;;43.3;32.7;;;;;;;6.68;95.06641;945.1908;;;;
2019/11/17 15:45:09;;;;;;;41.9;32.9;;;;;;;6.66;95.62988;945.2236;;;;
2019/11/17 15:47:35;;;;;;;43.6;33.4;;;;;;;6.58;95.5918;945.1898;;;;
2019/11/17 15:50:00;;;;;;;42.4;32.9;;;;;;;6.7;95.37793;945.1883;;;;
2019/11/17 15:52:25;;;;;;;44.2;32.8;;;;;;;6.73;95.5459;945.2299;;;;